Time;durP1;ratioP1;P1;durP2;ratioP2;P2;SDS_P1;SDS_P2;PMS_P1;PMS_P2;Temp;Humidity;BMP_temperature;BMP_pressure;BME280_temperature;BME280_humidity;BME280_pressure;Samples;Min_cycle;Max_cycle;Signal;HPM_P1;HPM_P2
2022/04/19 00:00:56;;;;;;;6.35;4.22;;;;;;;20.97;46.75;99260.44;4985233;28;20031;-86
2022/04/19 00:03:22;;;;;;;6.05;4.25;;;;;;;20.97;46.38;99257.78;4981812;28;20026;-85
2022/04/19 00:05:48;;;;;;;6.45;4.03;;;;;;;20.95;46.54;99257.03;4979639;28;20022;-84
2022/04/19 00:08:15;;;;;;;7.10;4.60;;;;;;;20.95;46.56;99249.06;4979902;28;20029;-86
2022/04/19 00:10:42;;;;;;;5.97;4.18;;;;;;;20.93;46.80;99244.72;4979542;28;20039;-86
2022/04/19 00:13:10;;;;;;;6.18;3.75;;;;;;;20.92;46.49;99248.31;4979926;28;20100;-85
2022/04/19 00:15:38;;;;;;;6.63;4.03;;;;;;;20.92;46.59;99245.66;4982392;28;20093;-86
2022/04/19 00:18:06;;;;;;;5.05;3.95;;;;;;;20.91;46.43;99238.66;4980305;28;20023;-85
2022/04/19 00:20:35;;;;;;;6.35;4.25;;;;;;;20.89;46.63;99239.72;4981985;28;20073;-86
2022/04/19 00:23:03;;;;;;;5.53;3.70;;;;;;;20.90;46.54;99238.75;4980765;28;20440;-85
2022/04/19 00:25:28;;;;;;;5.20;3.75;;;;;;;20.87;46.55;99231.84;4980817;28;20089;-85
2022/04/19 00:27:54;;;;;;;6.10;3.58;;;;;;;20.88;46.67;99230.88;4981741;28;20023;-87
2022/04/19 00:30:20;;;;;;;6.00;3.83;;;;;;;20.84;46.55;99229.38;4980351;28;20023;-85
2022/04/19 00:32:46;;;;;;;5.13;3.35;;;;;;;20.85;46.83;99225.81;4980325;28;20041;-85
2022/04/19 00:35:12;;;;;;;5.10;3.50;;;;;;;20.83;46.44;99225.03;4980961;28;20035;-85
2022/04/19 00:37:39;;;;;;;6.25;3.50;;;;;;;20.80;46.58;99217.25;4981590;28;20457;-86
2022/04/19 00:40:06;;;;;;;6.70;3.60;;;;;;;20.80;46.68;99222.56;4980170;28;20464;-86
2022/04/19 00:42:33;;;;;;;5.28;3.40;;;;;;;20.79;46.84;99216.38;4979856;28;20037;-85
2022/04/19 00:45:02;;;;;;;6.20;3.65;;;;;;;20.78;46.87;99219.16;4979284;28;20027;-85
2022/04/19 00:47:29;;;;;;;6.35;3.55;;;;;;;20.77;46.57;99217.44;4981369;28;20027;-86
2022/04/19 00:49:55;;;;;;;5.57;3.50;;;;;;;20.75;46.65;99214.91;4980474;28;20027;-86
2022/04/19 00:52:21;;;;;;;5.32;3.22;;;;;;;20.74;46.85;99212.34;4980640;28;20046;-85
2022/04/19 00:54:49;;;;;;;6.40;4.00;;;;;;;20.74;46.88;99212.34;4981906;28;20520;-86
2022/04/19 00:57:15;;;;;;;5.50;3.67;;;;;;;20.74;46.86;99207.03;4988772;28;20042;-84
2022/04/19 00:59:46;;;;;;;5.75;3.55;;;;;;;20.73;46.67;99208.81;5000835;28;20053;-86
2022/04/19 01:02:11;;;;;;;6.05;3.58;;;;;;;20.72;46.56;99203.66;5001097;28;20027;-86
2022/04/19 01:04:37;;;;;;;5.35;3.40;;;;;;;20.70;46.96;99203.75;4983276;28;20049;-86
2022/04/19 01:07:04;;;;;;;5.78;3.50;;;;;;;20.66;46.85;99195.13;4983309;28;20057;-85
2022/04/19 01:09:29;;;;;;;5.65;3.60;;;;;;;20.71;46.87;99199.28;4982980;28;20029;-85
2022/04/19 01:14:40;;;;;;;6.57;3.47;;;;;;;20.68;46.99;99191.53;5000594;28;20081;-86
2022/04/19 01:17:09;;;;;;;4.47;3.45;;;;;;;20.66;46.99;99195.13;4980590;28;20113;-86
2022/04/19 01:19:38;;;;;;;4.55;3.10;;;;;;;20.68;46.65;99186.22;4980613;28;20049;-86
2022/04/19 01:22:05;;;;;;;4.35;3.17;;;;;;;20.66;47.01;99181.88;4999360;28;20453;-87
2022/04/19 01:24:31;;;;;;;4.88;3.30;;;;;;;20.66;46.79;99173.06;4982274;28;20419;-86
2022/04/19 01:26:57;;;;;;;6.18;3.95;;;;;;;20.66;46.81;99173.94;4998348;28;20101;-86
2022/04/19 01:29:24;;;;;;;4.55;3.20;;;;;;;20.65;46.71;99172.22;4982205;28;20025;-86
2022/04/19 01:31:51;;;;;;;4.55;3.10;;;;;;;20.66;46.85;99178.38;4982351;28;20113;-85
2022/04/19 01:34:20;;;;;;;4.95;3.47;;;;;;;20.65;46.93;99174.88;4982410;28;20113;-85
2022/04/19 01:36:46;;;;;;;4.85;3.38;;;;;;;20.63;46.85;99171.47;4982972;28;20030;-86
2022/04/19 01:39:12;;;;;;;5.75;3.45;;;;;;;20.60;47.10;99179.63;4982744;28;20090;-86
2022/04/19 01:41:39;;;;;;;4.63;3.20;;;;;;;20.59;46.91;99183.19;4983788;28;20018;-84
2022/04/19 01:44:06;;;;;;;5.57;3.83;;;;;;;20.58;46.94;99176.19;4983417;28;20027;-86
2022/04/19 01:46:33;;;;;;;4.70;3.30;;;;;;;20.58;46.85;99178.84;4982927;28;20022;-86
2022/04/19 01:48:58;;;;;;;5.93;3.30;;;;;;;20.56;47.08;99178.09;4982504;28;20457;-86
2022/04/19 01:51:25;;;;;;;4.57;3.38;;;;;;;20.55;47.17;99184.38;4985153;28;20058;-86
2022/04/19 01:53:51;;;;;;;6.20;3.90;;;;;;;20.55;47.30;99172.91;4987781;28;20030;-86
2022/04/19 01:56:17;;;;;;;7.00;4.03;;;;;;;20.54;46.94;99174.72;4984270;28;20054;-86
2022/04/19 01:58:43;;;;;;;6.07;3.60;;;;;;;20.52;47.03;99176.59;4983542;28;20038;-86
2022/04/19 02:01:09;;;;;;;5.45;3.33;;;;;;;20.52;47.12;99176.59;5001369;28;20022;-86
2022/04/19 02:03:35;;;;;;;5.65;3.53;;;;;;;20.52;47.10;99181.91;4983924;28;20037;-86
2022/04/19 02:06:08;;;;;;;6.85;3.60;;;;;;;20.52;47.10;99181.91;5000989;28;20104;-86
2022/04/19 02:08:34;;;;;;;6.38;4.07;;;;;;;20.48;47.28;99180.41;5001968;28;20117;-87
2022/04/19 02:11:00;;;;;;;6.60;3.70;;;;;;;20.49;46.85;99182.09;4984120;28;20061;-85
2022/04/19 02:13:27;;;;;;;5.43;3.30;;;;;;;20.49;47.13;99187.41;4968262;28;20054;-85
2022/04/19 02:16:09;;;;;;;5.30;3.20;;;;;;;20.47;47.04;99179.53;4984500;28;20061;-86
2022/04/19 02:18:34;;;;;;;5.43;3.58;;;;;;;20.47;47.06;99189.28;5001072;28;20105;-87
2022/04/19 02:21:00;;;;;;;6.30;3.08;;;;;;;20.44;47.13;99178.88;5001226;28;20057;-86
2022/04/19 02:23:27;;;;;;;6.38;3.85;;;;;;;20.43;47.12;99177.19;4983941;28;20041;-87
2022/04/19 02:25:54;;;;;;;5.45;3.55;;;;;;;20.42;47.21;99180.75;5001953;28;20100;-86
2022/04/19 02:28:24;;;;;;;5.40;3.05;;;;;;;20.40;46.89;99183.53;4984887;28;20037;-86
2022/04/19 02:30:50;;;;;;;6.65;3.40;;;;;;;20.40;47.28;99183.53;4984062;28;20027;-84
2022/04/19 02:33:15;;;;;;;5.30;3.33;;;;;;;20.41;46.85;99173.78;4983376;28;20452;-86
2022/04/19 02:35:41;;;;;;;6.72;3.53;;;;;;;20.41;47.16;99176.41;4982629;28;20038;-86
2022/04/19 02:38:07;;;;;;;6.28;3.90;;;;;;;20.38;47.07;99175.69;4982810;28;20033;-84
2022/04/19 02:40:32;;;;;;;5.93;3.55;;;;;;;20.36;47.09;99177.59;4999703;28;20037;-85
2022/04/19 02:42:58;;;;;;;5.40;3.20;;;;;;;20.34;47.20;99183.94;4980427;28;20026;-87
2022/04/19 02:48:45;;;;;;;6.07;3.83;;;;;;;20.35;47.11;99175.84;4997137;28;20045;-86
2022/04/19 02:51:11;;;;;;;6.13;3.85;;;;;;;20.33;47.45;99167.16;4980731;28;20034;-85
2022/04/19 02:53:36;;;;;;;6.55;3.58;;;;;;;20.32;47.25;99170.75;4980512;28;20093;-86
2022/04/19 02:56:03;;;;;;;5.22;3.50;;;;;;;20.30;47.55;99177.97;4980264;28;20097;-84
2022/04/19 02:58:29;;;;;;;5.10;3.55;;;;;;;20.27;47.15;99164.91;4979960;28;20113;-86
2022/04/19 03:00:55;;;;;;;5.68;3.33;;;;;;;20.28;47.44;99173.72;4983556;28;20057;-85
2022/04/19 03:03:21;;;;;;;4.88;3.67;;;;;;;20.28;47.37;99173.72;4982246;28;20434;-87
2022/04/19 03:05:48;;;;;;;5.50;3.47;;;;;;;20.27;47.68;99170.19;4999306;28;20096;-86
2022/04/19 03:08:13;;;;;;;5.55;3.63;;;;;;;20.27;47.51;99167.56;4999553;28;20022;-87
2022/04/19 03:10:39;;;;;;;4.75;3.13;;;;;;;20.25;47.75;99170.28;4999596;28;20033;-86
2022/04/19 03:13:05;;;;;;;5.15;3.78;;;;;;;20.24;47.83;99171.25;4999784;28;20477;-87
2022/04/19 03:15:34;;;;;;;5.72;3.80;;;;;;;20.23;47.78;99166.91;4982392;28;20030;-86
2022/04/19 03:18:00;;;;;;;5.22;3.30;;;;;;;20.22;47.71;99165.19;4982224;28;20084;-86
2022/04/19 03:20:26;;;;;;;6.38;3.50;;;;;;;20.20;47.73;99159.13;4999956;28;20085;-86
2022/04/19 03:28:23;;;;;;;6.22;3.55;;;;;;;20.20;48.08;99155.63;5000081;28;20036;-86
2022/04/19 03:30:48;;;;;;;3.92;2.92;;;;;;;20.20;47.92;99145.03;4981488;28;20030;-87
2022/04/19 03:33:16;;;;;;;4.97;2.83;;;;;;;20.17;48.01;99148.72;4982416;28;20108;-87
2022/04/19 03:35:41;;;;;;;5.00;3.25;;;;;;;20.17;47.89;99145.22;4982518;28;20032;-86
2022/04/19 03:38:08;;;;;;;5.60;3.25;;;;;;;20.16;47.94;99152.34;4982535;28;20105;-86
2022/04/19 03:40:34;;;;;;;5.57;3.50;;;;;;;20.16;47.88;99152.34;4986317;28;20385;-86
2022/04/19 03:43:00;;;;;;;5.45;3.20;;;;;;;20.15;48.07;99153.28;5004725;28;20033;-85
2022/04/19 03:45:25;;;;;;;6.18;3.13;;;;;;;20.15;47.99;99144.47;5004450;28;20022;-86
2022/04/19 03:47:52;;;;;;;4.32;2.92;;;;;;;20.14;47.97;99140.97;5004365;28;20026;-87
2022/04/19 03:50:18;;;;;;;5.82;3.72;;;;;;;20.14;48.17;99140.13;4987049;28;20452;-87
2022/04/19 03:52:44;;;;;;;5.75;3.42;;;;;;;20.14;48.30;99140.97;4987967;28;20025;-87
2022/04/19 03:55:10;;;;;;;6.25;4.07;;;;;;;20.14;48.12;99140.13;4987336;28;20029;-85
2022/04/19 03:57:36;;;;;;;5.65;4.18;;;;;;;20.15;48.30;99144.47;4983042;28;20043;-85
2022/04/19 04:00:01;;;;;;;5.65;3.58;;;;;;;20.12;48.22;99141.09;4984241;28;20058;-85
2022/04/19 04:02:27;;;;;;;5.68;4.03;;;;;;;20.12;48.36;99143.72;4983634;28;20027;-86
2022/04/19 04:04:53;;;;;;;6.32;3.95;;;;;;;20.15;48.37;99136.53;4982262;28;20031;-86
2022/04/19 04:07:18;;;;;;;5.78;3.42;;;;;;;20.12;48.56;99146.38;4984562;28;20041;-87
2022/04/19 04:09:44;;;;;;;6.78;4.22;;;;;;;20.11;48.64;99142.00;4980432;28;20042;-86
2022/04/19 04:12:13;;;;;;;6.95;4.20;;;;;;;20.11;48.60;99136.72;4994604;28;20105;-86
2022/04/19 04:14:41;;;;;;;5.50;3.90;;;;;;;20.10;48.57;99134.19;4979071;28;20041;-87
2022/04/19 04:17:07;;;;;;;6.20;4.30;;;;;;;20.08;48.70;99134.28;4979617;28;20512;-86
2022/04/19 04:19:32;;;;;;;6.78;4.07;;;;;;;20.10;48.50;99142.97;4979953;28;20118;-86
2022/04/19 04:21:58;;;;;;;5.45;3.97;;;;;;;20.09;48.53;99141.25;4983809;28;20022;-85
2022/04/19 04:24:24;;;;;;;5.50;3.72;;;;;;;20.08;48.53;99136.91;4982912;28;20475;-86
2022/04/19 04:26:50;;;;;;;6.32;3.60;;;;;;;20.07;48.69;99140.53;4982589;28;20042;-87
2022/04/19 04:29:15;;;;;;;5.90;3.80;;;;;;;20.08;48.50;99142.22;4983935;28;20037;-85
2022/04/19 04:31:41;;;;;;;6.53;3.50;;;;;;;20.10;48.42;99145.59;4983856;28;20085;-86
2022/04/19 04:34:07;;;;;;;7.80;3.63;;;;;;;20.09;48.45;99135.97;4984244;28;20038;-85
2022/04/19 04:36:33;;;;;;;5.63;3.92;;;;;;;20.08;48.49;99136.91;4983758;28;20031;-86
2022/04/19 04:38:59;;;;;;;6.90;4.65;;;;;;;20.09;48.60;99143.91;4983998;28;20365;-86
2022/04/19 04:41:24;;;;;;;5.28;3.90;;;;;;;20.08;48.53;99131.63;4986321;28;20420;-87
2022/04/19 04:43:50;;;;;;;5.18;3.50;;;;;;;20.07;48.71;99135.22;4986964;28;20022;-87
2022/04/19 04:52:22;;;;;;;5.45;3.63;;;;;;;20.03;48.76;99127.53;4989121;28;20483;-87
2022/04/19 04:54:47;;;;;;;6.03;4.28;;;;;;;20.04;48.89;99127.44;4989477;28;20027;-87
2022/04/19 04:57:13;;;;;;;4.93;3.55;;;;;;;20.05;48.82;99130.97;4988081;28;20059;-86
2022/04/19 04:59:38;;;;;;;8.15;3.92;;;;;;;20.04;48.85;99132.75;4988596;28;20026;-86
2022/04/19 05:02:05;;;;;;;7.22;3.80;;;;;;;20.05;48.68;99137.09;4986234;28;20023;-86
2022/04/19 05:04:32;;;;;;;6.07;3.70;;;;;;;20.03;48.76;99133.69;4983031;28;20054;-86
2022/04/19 05:06:58;;;;;;;6.38;4.07;;;;;;;20.03;48.93;99124.88;4981316;28;20038;-85
2022/04/19 05:09:24;;;;;;;6.18;3.58;;;;;;;20.04;48.98;99135.41;4980572;28;20404;-85
2022/04/19 05:11:52;;;;;;;5.97;3.85;;;;;;;20.03;48.80;99133.69;4981471;28;20338;-85
2022/04/19 05:14:19;;;;;;;5.75;4.20;;;;;;;20.03;48.90;99139.00;4982938;28;20038;-86
2022/04/19 05:16:45;;;;;;;5.55;4.05;;;;;;;20.03;49.23;99140.78;4982852;28;20026;-86
2022/04/19 05:19:11;;;;;;;5.95;3.45;;;;;;;20.03;48.84;99143.44;4983569;28;20117;-86
2022/04/19 05:21:40;;;;;;;5.85;3.55;;;;;;;20.00;48.94;99141.81;4999078;28;20054;-86
2022/04/19 05:24:06;;;;;;;6.10;3.80;;;;;;;20.02;49.12;99144.38;4984012;28;20026;-87
2022/04/19 05:26:32;;;;;;;5.97;3.90;;;;;;;20.03;49.16;99141.66;4982359;28;20054;-85
2022/04/19 05:28:57;;;;;;;6.28;3.97;;;;;;;20.02;49.00;99147.03;4983412;28;20045;-89
2022/04/19 05:31:23;;;;;;;6.22;3.80;;;;;;;20.03;49.27;99152.25;4981539;28;20027;-86
2022/04/19 05:33:49;;;;;;;6.38;4.03;;;;;;;20.04;49.28;99159.22;4982576;28;20369;-86
2022/04/19 05:36:15;;;;;;;8.20;4.30;;;;;;;20.03;49.23;99154.88;4977666;28;20030;-86
2022/04/19 05:38:41;;;;;;;6.63;4.05;;;;;;;20.01;49.08;99162.09;4978266;28;20038;-86
2022/04/19 05:41:06;;;;;;;5.78;3.70;;;;;;;20.04;48.90;99158.41;4993921;28;20105;-86
2022/04/19 05:43:32;;;;;;;5.50;3.78;;;;;;;20.04;48.90;99161.88;4977800;28;20035;-86
2022/04/19 05:45:58;;;;;;;5.90;3.70;;;;;;;20.04;49.06;99167.19;4978282;28;20031;-87
2022/04/19 05:48:25;;;;;;;5.60;4.22;;;;;;;20.05;49.22;99166.22;4980717;28;20433;-86
2022/04/19 05:50:50;;;;;;;6.75;4.05;;;;;;;20.02;49.18;99166.44;4981562;28;20366;-88
2022/04/19 05:53:16;;;;;;;7.35;4.13;;;;;;;20.02;49.39;99162.91;4982906;28;20058;-86
2022/04/19 05:55:41;;;;;;;6.18;3.92;;;;;;;20.01;49.08;99167.38;4982759;28;20026;-86
2022/04/19 05:58:07;;;;;;;7.68;4.88;;;;;;;20.04;49.11;99169.81;4998250;28;20058;-86
2022/04/19 06:00:33;;;;;;;7.03;4.15;;;;;;;20.03;49.19;99173.44;4982743;28;20061;-86
2022/04/19 06:05:43;;;;;;;6.25;4.25;;;;;;;20.02;49.37;99179.69;4983242;28;20112;-86
2022/04/19 06:08:08;;;;;;;6.30;4.20;;;;;;;20.03;49.31;99181.38;4981992;28;20456;-86
2022/04/19 06:10:34;;;;;;;6.72;4.10;;;;;;;20.04;49.24;99183.06;4997801;28;20034;-86
2022/04/19 06:13:00;;;;;;;5.68;3.88;;;;;;;20.04;49.44;99183.06;4983635;28;20473;-85
2022/04/19 06:15:25;;;;;;;5.22;3.70;;;;;;;20.03;49.36;99189.31;4980952;28;20030;-86
2022/04/19 06:17:51;;;;;;;6.07;4.25;;;;;;;20.03;49.36;99191.97;4983578;28;20030;-85
2022/04/19 06:20:17;;;;;;;5.07;3.47;;;;;;;20.04;49.49;99187.53;4981315;28;20062;-86
2022/04/19 06:22:44;;;;;;;6.10;3.35;;;;;;;20.02;49.38;99189.41;4980024;28;20039;-85
2022/04/19 06:25:10;;;;;;;6.28;4.22;;;;;;;20.02;49.37;99189.41;4981755;28;20037;-86
2022/04/19 06:27:36;;;;;;;6.00;3.70;;;;;;;20.03;49.53;99191.09;4981922;28;20027;-87
2022/04/19 06:30:02;;;;;;;5.55;3.80;;;;;;;20.05;49.29;99194.53;4982263;28;20038;-86
2022/04/19 06:32:28;;;;;;;5.22;3.85;;;;;;;20.01;49.35;99193.88;4982294;28;20043;-86
2022/04/19 06:34:54;;;;;;;6.10;3.55;;;;;;;20.00;49.49;99192.13;4984839;28;20035;-87
2022/04/19 06:37:22;;;;;;;7.07;3.88;;;;;;;19.99;49.56;99195.75;4983412;28;20372;-86
2022/04/19 06:39:49;;;;;;;7.68;4.45;;;;;;;20.00;49.60;99202.72;4981784;28;20158;-86
2022/04/19 06:42:15;;;;;;;6.25;3.80;;;;;;;19.99;49.42;99201.03;4982390;28;20034;-86
2022/04/19 06:44:40;;;;;;;9.40;4.78;;;;;;;19.98;49.42;99196.69;4982179;28;20037;-86
2022/04/19 06:47:07;;;;;;;6.25;4.00;;;;;;;19.96;49.80;99199.41;4982573;28;20457;-86
2022/04/19 06:49:33;;;;;;;7.45;4.13;;;;;;;19.96;49.45;99195.94;4980393;28;20026;-87
2022/04/19 06:51:59;;;;;;;6.72;4.13;;;;;;;19.95;49.79;99200.34;4983366;28;20041;-87
2022/04/19 06:54:25;;;;;;;8.15;5.10;;;;;;;19.95;49.84;99199.50;4981342;28;20445;-85
2022/04/19 06:56:51;;;;;;;7.68;4.57;;;;;;;19.94;49.48;99197.78;4982501;28;20564;-86
2022/04/19 06:59:17;;;;;;;11.93;4.30;;;;;;;19.96;49.83;99207.38;4982698;28;20062;-86
2022/04/19 07:01:42;;;;;;;7.57;4.53;;;;;;;19.94;50.00;99213.66;4977193;28;20046;-87
2022/04/19 07:04:09;;;;;;;8.73;4.78;;;;;;;19.94;49.64;99209.25;4976743;28;20045;-86
2022/04/19 07:06:35;;;;;;;7.35;4.20;;;;;;;19.93;49.85;99201.38;4976871;28;20026;-86
2022/04/19 07:09:01;;;;;;;6.30;4.00;;;;;;;19.92;49.70;99210.28;4978293;28;20038;-87
2022/04/19 07:11:27;;;;;;;7.47;4.40;;;;;;;19.92;50.11;99199.69;4982364;28;20469;-86
2022/04/19 07:13:53;;;;;;;6.20;4.05;;;;;;;19.91;49.83;99196.16;4987967;28;20063;-86
2022/04/19 07:16:19;;;;;;;7.18;4.18;;;;;;;19.90;50.30;99196.28;4990556;28;20030;-86
2022/04/19 07:18:44;;;;;;;6.55;4.32;;;;;;;19.90;49.76;99191.00;4990374;28;20026;-86
2022/04/19 07:26:38;;;;;;;6.10;4.20;;;;;;;19.93;49.64;99180.19;4991755;28;20488;-84
2022/04/19 07:29:15;;;;;;;7.25;4.05;;;;;;;19.90;49.92;99183.88;4988627;28;20027;-85
2022/04/19 07:31:42;;;;;;;6.47;3.85;;;;;;;19.91;49.82;99176.81;4987910;28;20026;-85
2022/04/19 07:34:09;;;;;;;6.47;4.13;;;;;;;19.91;49.87;99182.09;4987657;28;20110;-86
2022/04/19 07:36:39;;;;;;;6.75;4.03;;;;;;;19.93;49.73;99180.19;4986725;28;20114;-85
2022/04/19 07:39:14;;;;;;;6.00;4.18;;;;;;;19.93;49.70;99177.53;4985872;28;20027;-86
2022/04/19 07:41:47;;;;;;;6.53;4.15;;;;;;;19.94;49.99;99181.88;4987898;28;20034;-87
2022/04/19 07:44:14;;;;;;;5.75;3.95;;;;;;;19.92;50.04;99183.78;4983986;28;20030;-88
2022/04/19 07:46:42;;;;;;;6.75;3.95;;;;;;;19.91;50.09;99187.41;4983314;28;20042;-88
2022/04/19 07:49:08;;;;;;;7.13;3.92;;;;;;;19.93;50.11;99180.19;4983205;28;20121;-87
2022/04/19 07:51:35;;;;;;;6.18;4.00;;;;;;;19.92;49.99;99175.84;4982757;28;20030;-88
2022/04/19 07:54:01;;;;;;;7.07;4.18;;;;;;;19.92;49.91;99181.16;4983976;28;20023;-87
2022/04/19 07:56:26;;;;;;;6.38;4.40;;;;;;;19.92;49.97;99175.84;4989074;28;20027;-90
2022/04/19 07:58:52;;;;;;;7.07;3.95;;;;;;;19.89;49.95;99173.41;4990616;28;20042;-90
2022/04/19 08:01:18;;;;;;;5.95;4.10;;;;;;;19.89;49.98;99171.59;4988271;28;20107;-89
2022/04/19 08:03:44;;;;;;;7.80;4.60;;;;;;;19.89;49.89;99171.59;4990439;28;20040;-91
2022/04/19 08:06:10;;;;;;;5.10;3.58;;;;;;;19.89;49.95;99168.09;4991853;28;20022;-90
2022/04/19 08:08:37;;;;;;;6.65;4.00;;;;;;;19.90;49.88;99180.41;4990106;28;20030;-89
2022/04/19 08:11:06;;;;;;;6.00;4.40;;;;;;;19.88;50.01;99176.97;5006547;28;20022;-89
2022/04/19 08:13:34;;;;;;;6.68;3.92;;;;;;;19.88;50.07;99175.19;4989459;28;20030;-90
2022/04/19 08:16:00;;;;;;;7.57;4.38;;;;;;;19.89;49.94;99173.41;4988930;28;20049;-92
2022/04/19 08:18:26;;;;;;;6.63;4.40;;;;;;;19.90;50.02;99180.41;4988235;28;20364;-89
2022/04/19 08:20:52;;;;;;;7.53;4.68;;;;;;;19.89;49.94;99168.94;4988572;28;20021;-90
2022/04/19 08:23:17;;;;;;;5.57;3.60;;;;;;;19.91;49.65;99176.81;4988246;28;20085;-89
2022/04/19 08:25:43;;;;;;;6.43;4.03;;;;;;;19.91;49.79;99166.22;4984546;28;20061;-91
2022/04/19 08:28:09;;;;;;;6.85;4.05;;;;;;;19.91;49.71;99163.56;4983409;28;20052;-89
2022/04/19 08:30:35;;;;;;;6.85;4.22;;;;;;;19.92;49.74;99163.47;4984373;28;20090;-90
2022/04/19 08:33:01;;;;;;;6.85;4.05;;;;;;;19.93;49.67;99159.88;4983567;28;20156;-90
2022/04/19 08:35:26;;;;;;;6.82;3.40;;;;;;;19.92;49.47;99152.88;4984323;28;20112;-89
2022/04/19 08:37:52;;;;;;;6.90;3.97;;;;;;;19.95;49.50;99154.50;4984788;28;20026;-90
2022/04/19 08:40:18;;;;;;;5.88;3.95;;;;;;;19.94;49.52;99155.41;4984646;28;20345;-90
2022/04/19 08:42:45;;;;;;;5.40;3.83;;;;;;;19.92;49.63;99152.00;4984991;28;20026;-90
2022/04/19 08:45:13;;;;;;;6.03;3.90;;;;;;;19.94;49.59;99152.75;4985104;28;20472;-89
2022/04/19 08:47:46;;;;;;;7.75;3.92;;;;;;;19.94;49.44;99166.88;4984657;28;20117;-89
2022/04/19 08:50:14;;;;;;;7.47;3.83;;;;;;;19.96;49.37;99164.16;4985093;28;20360;-89
2022/04/19 08:52:40;;;;;;;5.25;3.50;;;;;;;19.98;49.37;99167.56;5002051;28;20026;-89
2022/04/19 08:57:52;;;;;;;5.22;2.88;;;;;;;19.98;49.55;99167.56;5001010;28;20061;-88
2022/04/19 09:00:22;;;;;;;6.22;3.65;;;;;;;19.98;49.44;99172.84;4984053;28;20023;-88
2022/04/19 09:03:10;;;;;;;4.60;3.45;;;;;;;19.96;49.42;99165.00;4984482;28;20022;-88
2022/04/19 09:05:49;;;;;;;5.05;3.40;;;;;;;19.96;49.45;99166.81;4985374;28;20037;-89
2022/04/19 09:08:15;;;;;;;5.32;3.35;;;;;;;19.96;49.42;99177.41;4985442;28;20330;-89
2022/04/19 09:10:41;;;;;;;5.32;3.00;;;;;;;19.96;49.58;99166.81;4985211;28;20100;-90
2022/04/19 09:13:09;;;;;;;4.90;3.05;;;;;;;19.95;49.42;99167.72;4985395;28;20022;-88
2022/04/19 09:15:43;;;;;;;5.43;3.25;;;;;;;19.94;49.48;99166.00;4986028;28;20030;-90
2022/04/19 09:18:30;;;;;;;4.80;3.40;;;;;;;19.97;49.16;99165.84;4985512;28;20018;-90
2022/04/19 09:21:01;;;;;;;4.85;3.38;;;;;;;19.97;49.36;99166.72;4985284;28;20523;-90
2022/04/19 09:23:31;;;;;;;5.68;3.47;;;;;;;19.96;49.38;99158.88;4985477;28;20030;-90
2022/04/19 09:26:05;;;;;;;5.15;3.25;;;;;;;19.95;49.11;99149.19;4985892;28;20022;-89
2022/04/19 09:28:32;;;;;;;5.07;3.30;;;;;;;19.94;49.34;99140.38;4985391;28;20057;-89
2022/04/19 09:30:59;;;;;;;6.53;3.58;;;;;;;19.95;49.23;99143.91;5003108;28;20026;-89
2022/04/19 09:33:27;;;;;;;5.30;3.58;;;;;;;19.95;49.23;99141.25;4984840;28;20030;-88
2022/04/19 09:35:55;;;;;;;6.15;3.50;;;;;;;19.96;49.23;99142.97;4986163;28;20034;-89
2022/04/19 09:38:35;;;;;;;4.53;3.17;;;;;;;19.95;49.43;99146.53;4986989;28;20026;-91
2022/04/19 09:41:02;;;;;;;4.57;3.10;;;;;;;19.94;49.30;99150.13;4988154;28;20034;-90
2022/04/19 09:43:28;;;;;;;4.95;3.47;;;;;;;19.94;49.31;99150.13;4988187;28;20036;-90
2022/04/19 09:45:58;;;;;;;4.75;3.05;;;;;;;19.93;49.36;99148.41;5005160;28;20082;-89
2022/04/19 09:48:26;;;;;;;5.15;3.05;;;;;;;19.92;49.32;99146.72;5005904;28;20400;-90
2022/04/19 09:51:13;;;;;;;5.50;3.30;;;;;;;19.94;49.45;99142.16;4988483;28;20038;-90
2022/04/19 09:53:46;;;;;;;4.80;3.25;;;;;;;19.94;49.17;99145.69;4983358;28;20022;-91
2022/04/19 09:56:14;;;;;;;5.13;3.50;;;;;;;19.93;49.19;99145.78;4987291;28;20042;-90
2022/04/19 09:58:41;;;;;;;4.40;3.00;;;;;;;19.93;49.28;99153.72;4985953;28;20062;-89
2022/04/19 10:01:07;;;;;;;5.93;3.25;;;;;;;19.95;49.34;99157.97;4981647;28;20022;-88
2022/04/19 10:09:05;;;;;;;5.97;3.65;;;;;;;19.95;49.22;99149.19;4981772;28;20108;-90
2022/04/19 10:14:55;;;;;;;4.53;2.95;;;;;;;19.94;49.46;99155.41;4980871;28;20372;-90
2022/04/19 10:17:21;;;;;;;5.82;3.28;;;;;;;19.94;49.23;99145.69;4979877;28;20376;-90
2022/04/19 10:19:49;;;;;;;5.05;3.20;;;;;;;19.94;49.37;99145.69;4995958;28;20023;-89
2022/04/19 10:22:15;;;;;;;5.82;3.60;;;;;;;19.94;49.25;99140.38;4979877;28;20018;-90
2022/04/19 10:24:48;;;;;;;4.80;3.00;;;;;;;19.96;49.31;99140.34;4981933;28;20054;-89
2022/04/19 10:27:14;;;;;;;3.97;2.90;;;;;;;19.94;49.36;99139.53;4982319;28;20034;-89
2022/04/19 10:29:43;;;;;;;4.75;3.20;;;;;;;19.95;49.41;99138.59;4980313;28;20027;-89
2022/04/19 10:32:10;;;;;;;4.90;3.05;;;;;;;19.95;49.46;99128.00;4980992;28;20026;-89
2022/04/19 10:34:37;;;;;;;4.38;3.15;;;;;;;19.94;49.35;99129.78;4981624;28;20023;-90
2022/04/19 10:37:12;;;;;;;5.40;3.10;;;;;;;19.97;49.19;99126.13;4980876;28;20026;-89
2022/04/19 10:40:07;;;;;;;4.78;3.10;;;;;;;19.97;49.02;99123.50;4979086;28;20035;-89
2022/04/19 10:42:36;;;;;;;4.40;3.00;;;;;;;19.98;49.08;99130.47;4972583;28;20034;-89
2022/04/19 10:45:14;;;;;;;5.05;3.13;;;;;;;20.00;49.05;99125.94;4980291;28;20027;-89
2022/04/19 10:47:52;;;;;;;5.10;3.55;;;;;;;19.99;49.02;99116.28;4979420;28;20034;-89
2022/04/19 10:50:29;;;;;;;4.90;3.00;;;;;;;19.99;49.08;99116.28;4979921;28;20042;-89
2022/04/19 10:53:08;;;;;;;4.18;3.10;;;;;;;19.97;48.95;99119.06;4979428;28;20478;-90
2022/04/19 10:55:38;;;;;;;6.50;3.22;;;;;;;19.98;49.09;99107.50;4980308;28;20070;-90
2022/04/19 10:58:09;;;;;;;4.28;3.05;;;;;;;19.98;49.23;99109.28;4979186;28;20062;-90
2022/04/19 11:00:34;;;;;;;4.47;2.72;;;;;;;20.01;49.07;99113.56;4979528;28;20041;-88
2022/04/19 11:03:12;;;;;;;4.45;3.40;;;;;;;20.01;49.07;99102.97;4979714;28;20031;-90
2022/04/19 11:05:47;;;;;;;4.68;2.85;;;;;;;20.02;49.13;99094.94;4979516;28;20555;-89
2022/04/19 11:08:23;;;;;;;4.60;3.00;;;;;;;20.04;49.08;99098.31;4978895;28;20089;-90
2022/04/19 11:10:50;;;;;;;4.70;2.97;;;;;;;20.02;49.20;99102.00;4978929;28;20059;-89
2022/04/19 11:13:16;;;;;;;5.30;3.00;;;;;;;20.03;49.14;99096.63;4979700;28;20065;-90
2022/04/19 11:15:42;;;;;;;4.68;3.65;;;;;;;20.03;49.27;99096.63;4978920;28;20022;-89
2022/04/19 11:18:29;;;;;;;4.68;3.00;;;;;;;20.03;49.14;99091.31;4978677;28;20026;-90
2022/04/19 11:20:58;;;;;;;4.20;3.15;;;;;;;20.05;49.20;99085.94;4976403;28;20026;-89
2022/04/19 11:23:25;;;;;;;4.32;2.92;;;;;;;20.05;48.84;99078.81;4977529;28;20112;-90
2022/04/19 11:25:53;;;;;;;6.10;3.80;;;;;;;20.06;49.20;99075.25;4978333;28;20022;-89
2022/04/19 11:28:20;;;;;;;5.07;3.30;;;;;;;20.06;49.10;99074.38;4979155;28;20027;-89
2022/04/19 11:31:05;;;;;;;3.90;2.80;;;;;;;20.07;49.00;99074.31;4979343;28;20031;-89
2022/04/19 11:33:33;;;;;;;4.53;3.00;;;;;;;20.06;49.03;99074.38;4979496;28;20027;-90
2022/04/19 11:36:06;;;;;;;4.10;3.15;;;;;;;20.07;48.90;99070.78;4978950;28;20137;-90
2022/04/19 11:38:35;;;;;;;4.93;2.80;;;;;;;20.07;49.08;99071.66;4979931;28;20054;-89
2022/04/19 11:46:45;;;;;;;4.47;2.78;;;;;;;20.10;49.00;99050.25;4980791;28;20069;-90
2022/04/19 11:49:20;;;;;;;4.32;2.97;;;;;;;20.09;49.05;99048.56;4980998;28;20102;-90
2022/04/19 11:51:46;;;;;;;4.13;2.80;;;;;;;20.08;49.08;99041.56;4980216;28;20046;-89
2022/04/19 11:54:19;;;;;;;4.18;3.10;;;;;;;20.09;49.09;99043.25;4980824;28;20134;-90
2022/04/19 11:56:45;;;;;;;4.07;2.65;;;;;;;20.09;48.99;99040.59;4983757;28;20093;-90
2022/04/19 11:59:11;;;;;;;4.22;2.78;;;;;;;20.08;48.97;99041.56;4983194;28;20195;-90
2022/04/19 12:01:36;;;;;;;4.18;2.83;;;;;;;20.09;48.94;99031.81;4987415;28;20025;-89
2022/04/19 12:04:11;;;;;;;3.67;2.60;;;;;;;20.09;49.01;99030.00;4988459;28;20034;-91
2022/04/19 12:06:37;;;;;;;4.30;2.75;;;;;;;20.09;48.92;99027.38;4988512;28;20022;-90
2022/04/19 12:09:03;;;;;;;4.32;2.53;;;;;;;20.12;48.91;99036.91;4985362;28;20026;-89
2022/04/19 12:11:30;;;;;;;4.80;2.40;;;;;;;20.10;48.92;99031.72;4986634;28;20105;-92
2022/04/19 12:13:57;;;;;;;6.13;3.05;;;;;;;20.12;49.00;99027.19;4986579;28;20033;-88
2022/04/19 12:20:03;;;;;;;4.28;3.08;;;;;;;20.10;49.11;99018.47;5016012;28;20053;-93
2022/04/19 12:22:33;;;;;;;4.22;2.42;;;;;;;20.09;49.21;99015.91;4999822;28;20030;-92